TOURFACTS.DK  
Stats and Facts from Tour de France.

Tour de France 2019 starts in 324 days
  Riders   Stages   Teams   Summits   Yearly  


 
Search by year

After 2018 - Stage 21:
 15000 starters.
  5165 different riders.
  638 teams.
  2253 stages.
  456 restdays.
  442940.60 km.
  5684 abandonnees.


Top 3
GC
Geraint Thomas83:17:13
Tom Dumoulin83:19:04
Christopher Froome83:19:37
Climb
Julian Alaphilippe170 pt.
Warren Barguil91 pt.
Rafal Majka76 pt.
Sprint
Peter Sagan477 pt.
Alexander Kristoff246 pt.
Arnaud Démare203 pt.
Youth
Pierre-Roger Latou..83:39:26
Egan Bernal83:45:05
Guillaume Martin84:01:31
Facts from Tour de France 1975
  |   Stages.  |   Stage winners.  |   Days in yellow  |   Average speed.  |   Route.  |   Teams.  |   All riders.  |   Rookies.  |  

  |   Withdrawls.  |   GC.  |   Polka  |   Green  |   White  |   Summits. (In tour)  |   Miscellaneous.  |  

Stage 17 on 15 - 07 - 1975
         Owning:    Bernard Thevenet    
Pick a stage:  Pro 1a 1b 2 3 4 5 6 7 8 9a 9b 10 11 12 13 14 15 16 17 18 19 20 21 22
  ValloireMorzine-Avoriaz | Dist: 225.00 km.
Cat: 1Col de la MadeleineESPFrancisco Galdos20 points 
Cat: 3Col de l'Aravis - ThônesBELLucien Van Impe8 points 
Cat: 2Col de la Colombiere ESPVicente Lopez15 points 
Cat: 1Avoriaz - MorzineESPVicente Lopez20 points 

Average speed for all riders in stage:  28,942 km./hr.
    Place:Name:Team:Time:Km/h:
1
ESPVicente LopezESPKas-Kaskol07:23:38  +  00:00:00=30,431 
2
BELLucien Van ImpeFRAGitane-Campagnolo07:25:49  +  00:02:11=30,282 
3
BELEddy MerckxITAMolteni07:27:22  +  00:03:44=30,177 
44 NEDJoop ZoetemelkFRAGan-Mercier-Hutchinson07:27:23  +  00:03:45=30,175 
55 FRABernard ThevenetFRAPeugeot-BP-Michelin07:27:24  +  00:03:46=30,174 
66 SUIJosef FuchsITAFilotex07:27:34  +  00:03:56=30,163 
77 BELMichel PollentierBELCarpenter Confortluxe-Flandria07:27:46  +  00:04:08=30,150 
88 FRARaymond DelisleFRAPeugeot-BP-Michelin07:27:55  +  00:04:17=30,140 
99 BELEduard JanssensITAMolteni07:29:11  +  00:05:33=30,055 
1010 ITAFelice GimondiITABianchi-Campagnolo07:29:11  +  00:05:33=30,055 
1111 ITAFrancesco MoserITAFilotex07:29:11  +  00:05:33=30,055 
1212 ESPPedro TorresESPSuper Ser07:29:13  +  00:05:35=30,052 
1313 NEDHennie KuiperNLDFrisol-G.B.C.07:29:13  +  00:05:35=30,052 
1414 FRAGeorges TalbourdetFRAGan-Mercier-Hutchinson07:29:13  +  00:05:35=30,052 
1515 BELTony HoubrechtsITABianchi-Campagnolo07:29:51  +  00:06:13=30,010 
1616 PORJoaquim AgostinhoPRTSporting-Sottomayor07:30:26  +  00:06:48=29,971 
1717 ITARoberto PoggialiITAFilotex07:30:26  +  00:06:48=29,971 
1818 ESPAndré RomeroFRAJobo-Wolber07:31:10  +  00:07:32=29,922 
1919 ESPMariano MartinezFRAGitane-Campagnolo07:31:22  +  00:07:44=29,909 
2020 FRAPatrick PerretBELMiko-De Gribaldy07:31:40  +  00:08:02=29,889 
2121 NEDFedor Iwan Den HertogNLDFrisol-G.B.C.07:32:10  +  00:08:32=29,856 
2222 FRAJoël MillardFRAJobo-Wolber07:32:41  +  00:09:03=29,822 
2323 FRAYves HézardFRAGan-Mercier-Hutchinson07:33:54  +  00:10:16=29,742 
2424 ESPJosé PesarrodonaESPKas-Kaskol07:33:54  +  00:10:16=29,742 
2525 FRAGuy LeleuFRAGitane-Campagnolo07:34:20  +  00:10:42=29,714 
2626 ESPJosé-Luis ViejoESPSuper Ser07:35:20  +  00:11:42=29,649 
2727 FRAFerdinand JulienPRTSporting-Sottomayor07:35:51  +  00:12:13=29,615 
2828 BELJos De SchoenmaeckerITAMolteni07:35:51  +  00:12:13=29,615 
2929 FRARégis OvionFRAPeugeot-BP-Michelin07:36:12  +  00:12:34=29,592 
3030 ITASimone FraccaroITABianchi-Campagnolo07:36:31  +  00:12:53=29,572 
3131 ITARenato MarchettiITAFilotex07:41:21  +  00:17:43=29,262 
3232 FRAHubert MathisBELMiko-De Gribaldy07:41:21  +  00:17:43=29,262 
3333 ESPCarlos MeleroESPKas-Kaskol07:41:21  +  00:17:43=29,262 
3434 BELHerman Van SpringelBELCarpenter Confortluxe-Flandria07:41:21  +  00:17:43=29,262 
3535 BELRonald De WitteBELCarpenter Confortluxe-Flandria07:41:21  +  00:17:43=29,262 
3636 BELMarc DemeyerBELCarpenter Confortluxe-Flandria07:41:21  +  00:17:43=29,262 
3737 FRAPatrick BeonFRAPeugeot-BP-Michelin07:41:21  +  00:17:43=29,262 
3838 ESPLuis BalagueESPSuper Ser07:41:21  +  00:17:43=29,262 
3939 FRASylvain VasseurESPSuper Ser07:41:21  +  00:17:43=29,262 
4040 BELAlbert Van VlierbergheBELMiko-De Gribaldy07:41:21  +  00:17:43=29,262 
4141 FRABernard BourreauFRAPeugeot-BP-Michelin07:42:03  +  00:18:25=29,218 
4242 ITAArnaldo CaverzasiITAFilotex07:42:03  +  00:18:25=29,218 
4343 COLMartìn RodríguezITABianchi-Campagnolo07:43:35  +  00:19:57=29,121 
4444 FRARaymond PoulidorFRAGan-Mercier-Hutchinson07:47:52  +  00:24:14=28,854 
4545 BELWilly TeirlinckFRAGitane-Campagnolo07:51:20  +  00:27:42=28,642 
4646 FRARichard PianaroFRAJobo-Wolber07:51:20  +  00:27:42=28,642 
4747 BELMarc LievensITAMolteni07:51:20  +  00:27:42=28,642 
4848 ESPJosé CasasESPSuper Ser07:51:20  +  00:27:42=28,642 
4949 FRACharly RouxelFRAPeugeot-BP-Michelin07:51:20  +  00:27:42=28,642 
5050 NEDGerben KarstensFRAGitane-Campagnolo07:51:20  +  00:27:42=28,642 
5151 FRARobert MintkiewiczFRAGitane-Campagnolo07:51:20  +  00:27:42=28,642 
5252 ESPFrancisco GaldosESPKas-Kaskol07:51:20  +  00:27:42=28,642 
5353 DENOle RitterITAFilotex07:51:20  +  00:27:42=28,642 
5454 BELWalter GodefrootBELCarpenter Confortluxe-Flandria07:51:20  +  00:27:42=28,642 
5555 BELHerman BeysensITAMolteni07:51:20  +  00:27:42=28,642 
5656 BELJoseph SpruytITAMolteni07:51:20  +  00:27:42=28,642 
5757 BELLudo DelcroixITAMolteni07:51:42  +  00:28:04=28,620 
5858 NEDGerrie KnetemannFRAGan-Mercier-Hutchinson07:52:12  +  00:28:34=28,590 
5959 ITASigfrido FontanelliITAFilotex07:52:12  +  00:28:34=28,590 
6060 FRAClaude MagniFRAJobo-Wolber07:52:31  +  00:28:53=28,570 
6161 BELFrans MintjensITAMolteni07:52:31  +  00:28:53=28,570 
6262 BELKarel RottiersITAMolteni07:54:40  +  00:31:02=28,441 
6363 ESPJosé GrandeESPKas-Kaskol07:55:01  +  00:31:23=28,420 
6464 ESPAntonio MenendezESPKas-Kaskol07:55:08  +  00:31:30=28,413 
6565 FRAFrancis CampanerPRTSporting-Sottomayor08:00:09  +  00:36:31=28,116 
6666 BELRik Van LindenITABianchi-Campagnolo08:00:09  +  00:36:31=28,116 
6767 BELJoseph HuysmansITAMolteni08:00:09  +  00:36:31=28,116 
6868 FRARoger LegeayFRAJobo-Wolber08:00:09  +  00:36:31=28,116 
6969 FRAJoel HauvieuxFRAJobo-Wolber08:00:09  +  00:36:31=28,116 
7070 ITAGiacinto SantambrogioITABianchi-Campagnolo08:00:09  +  00:36:31=28,116 
7171 NEDGerard VianenFRAGan-Mercier-Hutchinson08:00:09  +  00:36:31=28,116 
7272 BELJosé De CauwerNLDFrisol-G.B.C.08:00:09  +  00:36:31=28,116 
7373 PORJosé AmaroPRTSporting-Sottomayor08:00:09  +  00:36:31=28,116 
7474 ITAFabrizio FabbriITABianchi-Campagnolo08:00:09  +  00:36:31=28,116 
7575 FRAMaurice Le GuillouxFRAGitane-Campagnolo08:00:09  +  00:36:31=28,116 
7676 BELFrans Van VlierbergheBELMiko-De Gribaldy08:00:09  +  00:36:31=28,116 
7777 FRARegis DelepineBELCarpenter Confortluxe-Flandria08:00:09  +  00:36:31=28,116 
7878 ITALuigi CastellettiITABianchi-Campagnolo08:00:09  +  00:36:31=28,116 
7979 ITAMauro SimonettiITAFilotex08:00:09  +  00:36:31=28,116 
8080 BELRené DillenFRAGitane-Campagnolo08:00:09  +  00:36:31=28,116 
8181 ITAGiovanni CavalcantiITABianchi-Campagnolo08:00:09  +  00:36:31=28,116 
8282 FRASerge ParsaniITABianchi-Campagnolo08:00:09  +  00:36:31=28,116 
8383 FRARaymond MartinFRAGitane-Campagnolo08:00:09  +  00:36:31=28,116 
8484 FRAJacques BoulasFRAJobo-Wolber08:00:09  +  00:36:31=28,116 
8585 ENGBarry HobanFRAGan-Mercier-Hutchinson08:00:09  +  00:36:31=28,116 
8686 AUSDonald AllanNLDFrisol-G.B.C.08:00:09  +  00:36:31=28,116 
8787 MARAntoine GutierrezBELMiko-De Gribaldy08:00:09  +  00:36:31=28,116 
8888 FRAJean-Claude MisacFRAGan-Mercier-Hutchinson08:00:09  +  00:36:31=28,116 
8989 BELAndre DoyenBELMiko-De Gribaldy08:00:09  +  00:36:31=28,116 
9090 FRAGuy SibilleFRAPeugeot-BP-Michelin08:00:33  +  00:36:55=28,093 
9191 PORFernando FerreiraPRTSporting-Sottomayor08:01:28  +  00:37:50=28,039 
9292 FRAGerard MoneyronBELCarpenter Confortluxe-Flandria08:01:46  +  00:38:08=28,022 
9393 NEDGerard KamperNLDFrisol-G.B.C.08:01:49  +  00:38:11=28,019 
9494 NEDHenk PrinsenNLDFrisol-G.B.C.08:04:29  +  00:40:51=27,865 

Withdrawls: 3
 
Rider
Team
Reason
12  FRAJean-Pierre GenetFRAGan-Mercier-HutchinsonDid not start
55  FRAJean-Pierre DanguillaumeFRAPeugeot-BP-MichelinDid not finish
83  ITAPietro DallaiITAFilotexDid not finish
Todays birthdays.

1883  Albert Niepçeron
1911  Camille Leroy
1914  Gaston Grimbert
1940  José Momeñe
1956  Régis Clère
1957  Alfonso Dal Pian
1960  Samuel Cabrera
1967  Christophe Capelle
1976  Dimitiri Fofonov
1980  Giampaolo Caruso
1983  Jean-Marc Marino




Visits: